Time;durP1;ratioP1;P1;durP2;ratioP2;P2;SDS_P1;SDS_P2;PMS_P1;PMS_P2;Temp;Humidity;BMP_temperature;BMP_pressure;BME280_temperature;BME280_humidity;BME280_pressure;Samples;Min_cycle;Max_cycle;Signal;HPM_P1;HPM_P2
2021/10/06 00:09:35;;;;;;;11.88;2.03;;;;;;;10.42;100.00;100680.34;5949050;24;20370;-84
2021/10/06 00:13:22;;;;;;;;;;;;;;;;;;;;;
2021/10/06 00:16:33;;;;;;;9.02;1.88;;;;;;;10.37;100.00;100696.94;5955359;24;20467;-85
2021/10/06 00:19:22;;;;;;;14.80;1.75;;;;;;;10.30;100.00;100707.31;6095395;23;20108;-83
2021/10/06 00:22:03;;;;;;;8.68;1.58;;;;;;;10.27;100.00;100698.50;6119215;23;20017;-82
2021/10/06 00:25:00;;;;;;;8.70;1.58;;;;;;;10.22;100.00;100703.66;6121268;23;20006;-82
2021/10/06 00:31:17;;;;;;;8.65;1.33;;;;;;;10.17;100.00;100699.22;6036958;23;20078;-83
2021/10/06 00:33:55;;;;;;;7.97;1.20;;;;;;;10.14;100.00;100702.66;6122242;23;20461;-82
2021/10/06 00:37:03;;;;;;;13.52;1.85;;;;;;;10.12;100.00;100707.91;6121015;23;20062;-82
2021/10/06 00:39:34;;;;;;;7.68;1.15;;;;;;;10.12;100.00;100712.28;6122025;23;20020;-84
2021/10/06 00:42:08;;;;;;;7.22;2.20;;;;;;;10.14;100.00;100705.28;6140113;23;20058;-84
2021/10/06 00:45:16;;;;;;;8.32;1.30;;;;;;;10.20;100.00;100715.94;6203016;23;20012;-82
2021/10/06 00:48:26;;;;;;;10.13;1.02;;;;;;;10.19;100.00;100727.31;6213040;23;20039;-84
2021/10/06 00:51:08;;;;;;;3.55;1.10;;;;;;;10.19;100.00;100721.16;6215139;23;20008;-82
2021/10/06 00:54:12;;;;;;;;;;;;;;;;;;;;;
2021/10/06 00:56:58;;;;;;;10.25;1.38;;;;;;;10.12;100.00;100734.19;6205547;23;20343;-87
2021/10/06 01:00:59;;;;;;;;;;;;;;;;;;;;;
2021/10/06 01:07:51;;;;;;;;;;;;;;;;;;;;;
2021/10/06 01:28:55;;;;;;;2.13;0.75;;;;;;;9.90;100.00;100750.44;6004206;23;20055;-85
2021/10/06 02:03:51;;;;;;;9.40;1.10;;;;;;;9.86;100.00;100746.00;5672230;25;19918;-85
2021/10/06 02:06:16;;;;;;;4.65;0.80;;;;;;;9.83;100.00;100756.47;5772327;23;20091;-81
2021/10/06 02:09:05;;;;;;;7.20;0.80;;;;;;;9.77;100.00;100752.88;6097286;23;20104;-84
2021/10/06 02:11:56;;;;;;;9.50;1.30;;;;;;;9.75;100.00;100759.84;6213050;23;20052;-83
2021/10/06 02:14:24;;;;;;;7.47;1.00;;;;;;;9.71;100.00;100755.41;6186535;23;20036;-82
2021/10/06 02:16:56;;;;;;;3.58;1.40;;;;;;;9.67;100.00;100750.94;6213492;23;20016;-83
2021/10/06 02:19:47;;;;;;;8.85;1.10;;;;;;;9.62;100.00;100748.22;6214220;23;20028;-83
2021/10/06 02:22:16;;;;;;;9.25;0.93;;;;;;;9.62;100.00;100742.97;6212624;23;20415;-82
2021/10/06 02:25:08;;;;;;;7.50;1.02;;;;;;;9.59;100.00;100747.25;6211707;23;20321;-82
2021/10/06 02:27:54;;;;;;;9.13;0.95;;;;;;;9.55;100.00;100737.53;6212692;23;20035;-82
2021/10/06 02:30:23;;;;;;;7.20;0.90;;;;;;;9.56;100.00;100736.69;6210932;23;20051;-85
2021/10/06 02:33:00;;;;;;;6.60;1.55;;;;;;;9.53;100.00;100744.53;6187016;23;20008;-85
2021/10/06 02:35:35;;;;;;;4.28;0.70;;;;;;;9.58;100.00;100740.25;6214176;23;20019;-85
2021/10/06 02:38:04;;;;;;;12.80;1.65;;;;;;;9.55;100.00;100750.69;6186717;23;20013;-82
2021/10/06 02:40:49;;;;;;;17.48;2.55;;;;;;;9.57;100.00;100746.34;6213725;23;20032;-84
2021/10/06 02:43:21;;;;;;;12.75;1.25;;;;;;;9.58;100.00;100753.38;6210334;23;20083;-83
2021/10/06 02:46:30;;;;;;;9.63;0.85;;;;;;;9.55;100.00;100750.69;6212565;23;20344;-85
2021/10/06 02:49:25;;;;;;;;;;;;;;;;;;;;;
2021/10/06 02:52:25;;;;;;;6.82;1.00;;;;;;;9.56;100.00;100752.47;6214015;23;20058;-83
2021/10/06 02:55:19;;;;;;;9.90;1.25;;;;;;;9.52;100.00;100742.75;6212073;23;20020;-86
2021/10/06 02:58:25;;;;;;;9.45;1.35;;;;;;;9.51;100.00;100749.75;6212928;23;20005;-84
2021/10/06 03:01:05;;;;;;;10.57;1.58;;;;;;;9.49;100.00;100751.44;6213149;23;20034;-84
2021/10/06 03:04:03;;;;;;;6.22;1.20;;;;;;;9.50;100.00;100754.97;6212701;23;20011;-84
2021/10/06 03:06:40;;;;;;;14.45;3.50;;;;;;;9.45;100.00;100745.28;6201080;23;20150;-83
2021/10/06 03:09:39;;;;;;;;;;;;;;;;;;;;;
2021/10/06 03:12:43;;;;;;;9.95;1.48;;;;;;;9.44;100.00;100742.59;6197407;23;20083;-81
2021/10/06 03:16:00;;;;;;;;;;;;;;;;;;;;;
2021/10/06 03:19:16;;;;;;;;;;;;;;;;;;;;;
2021/10/06 03:22:27;;;;;;;10.50;1.17;;;;;;;9.36;100.00;100739.84;6198393;23;20084;-85
2021/10/06 03:24:59;;;;;;;8.70;1.20;;;;;;;9.31;100.00;100735.34;6062183;23;20017;-85
2021/10/06 03:28:05;;;;;;;;;;;;;;;;;;;;;
2021/10/06 03:30:54;;;;;;;9.15;0.80;;;;;;;9.26;100.00;100732.63;6060764;23;20157;-82
2021/10/06 03:33:51;;;;;;;19.77;1.45;;;;;;;9.25;100.00;100730.84;6061914;23;20011;-82
2021/10/06 03:36:24;;;;;;;10.32;1.30;;;;;;;9.25;100.00;100726.50;6137557;23;20008;-82
2021/10/06 03:38:56;;;;;;;17.35;2.05;;;;;;;9.27;100.00;100729.16;6213300;23;20009;-82
2021/10/06 03:41:23;;;;;;;8.25;1.17;;;;;;;9.27;100.00;100726.53;6185113;23;20080;-83
2021/10/06 03:43:55;;;;;;;15.48;1.17;;;;;;;9.28;100.00;100736.19;6210567;23;20020;-81
2021/10/06 03:46:40;;;;;;;11.13;1.98;;;;;;;9.29;100.00;100732.66;6210467;23;20042;-81
2021/10/06 03:49:25;;;;;;;10.25;1.08;;;;;;;9.24;100.00;100731.72;6210812;23;20066;-84
2021/10/06 03:52:35;;;;;;;;;;;;;;;;;;;;;
2021/10/06 03:56:01;;;;;;;;;;;;;;;;;;;;;
2021/10/06 03:59:35;;;;;;;11.90;1.30;;;;;;;9.27;100.00;100729.16;6205388;23;20487;-84
2021/10/06 04:02:52;;;;;;;5.45;1.40;;;;;;;9.28;100.00;100726.53;6042886;23;20013;-85
2021/10/06 04:09:43;;;;;;;9.77;1.20;;;;;;;9.31;100.00;100720.47;6064539;23;20082;-81
2021/10/06 04:16:03;;;;;;;14.65;1.55;;;;;;;9.40;100.00;100707.53;6120746;23;20489;-81
2021/10/06 04:19:00;;;;;;;23.02;2.47;;;;;;;9.48;100.00;100706.78;6120941;23;20026;-83
2021/10/06 04:22:07;;;;;;;19.25;2.55;;;;;;;9.53;100.00;100710.38;6123409;23;20026;-82
2021/10/06 04:25:19;;;;;;;25.17;3.15;;;;;;;9.64;100.00;100708.81;6099126;23;20016;-82
2021/10/06 04:32:04;;;;;;;23.80;2.85;;;;;;;9.96;100.00;100703.25;6117961;23;20010;-85
2021/10/06 04:35:03;;;;;;;22.60;2.25;;;;;;;10.05;100.00;100699.88;6198287;23;20293;-86
2021/10/06 04:37:34;;;;;;;18.67;2.88;;;;;;;10.14;100.00;100697.41;6213166;23;20424;-82
2021/10/06 04:40:03;;;;;;;30.58;2.60;;;;;;;10.23;100.00;100707.22;6215257;23;20019;-84
2021/10/06 04:42:38;;;;;;;24.90;2.80;;;;;;;10.28;100.00;100716.03;6214688;23;20324;-84
2021/10/06 04:45:43;;;;;;;20.80;3.35;;;;;;;10.34;100.00;100713.50;6214143;23;20481;-85
2021/10/06 04:48:18;;;;;;;14.13;2.38;;;;;;;10.40;100.00;100718.88;6214990;23;20016;-82
2021/10/06 04:50:50;;;;;;;22.45;2.10;;;;;;;10.42;100.00;100711.03;6214147;23;20012;-84
2021/10/06 04:53:18;;;;;;;13.57;2.22;;;;;;;10.45;100.00;100725.09;6215606;23;20029;-83
2021/10/06 04:56:27;;;;;;;20.92;2.50;;;;;;;10.48;100.00;100728.66;6213653;23;20016;-86
2021/10/06 04:58:52;;;;;;;17.55;2.17;;;;;;;10.50;100.00;100734.81;6215001;23;20016;-85
2021/10/06 05:01:48;;;;;;;18.05;2.22;;;;;;;10.60;100.00;100723.56;6214169;23;20433;-82
2021/10/06 05:04:51;;;;;;;;;;;;;;;;;;;;;
2021/10/06 05:08:10;;;;;;;;;;;;;;;;;;;;;
2021/10/06 05:14:25;;;;;;;19.15;3.25;;;;;;;10.72;100.00;100742.16;6214508;23;20046;-81
2021/10/06 05:17:53;;;;;;;;;;;;;;;;;;;;;
2021/10/06 05:24:00;;;;;;;17.23;2.50;;;;;;;10.80;100.00;100758.06;6201762;23;20020;-86
2021/10/06 05:30:03;;;;;;;16.35;3.10;;;;;;;10.77;100.00;100766.81;6121540;23;20520;-85
2021/10/06 05:32:35;;;;;;;23.05;3.58;;;;;;;10.75;100.00;100765.00;6121406;23;20010;-82
2021/10/06 05:35:40;;;;;;;21.65;3.20;;;;;;;10.79;100.00;100772.97;6099237;23;20021;-84
2021/10/06 05:38:55;;;;;;;22.85;2.90;;;;;;;10.83;100.00;100775.66;6119043;23;20068;-84
2021/10/06 05:52:23;;;;;;;16.60;3.08;;;;;;;10.80;100.00;100787.03;6191526;23;20016;-82
2021/10/06 06:16:52;;;;;;;22.55;2.50;;;;;;;10.81;100.00;100815.09;5953196;24;20019;-87
2021/10/06 06:19:19;;;;;;;18.17;2.80;;;;;;;10.80;100.00;100829.13;5944670;24;20095;-80
2021/10/06 06:22:33;;;;;;;14.02;2.10;;;;;;;10.80;100.00;100824.75;5958839;23;20035;-82
2021/10/06 06:24:59;;;;;;;17.23;2.10;;;;;;;10.79;100.00;100833.50;6212182;23;20012;-84
2021/10/06 06:27:47;;;;;;;13.35;2.03;;;;;;;10.79;100.00;100838.75;6213617;23;20095;-82
2021/10/06 06:30:36;;;;;;;;;;;;;;;;;;;;;
2021/10/06 06:33:39;;;;;;;17.02;2.00;;;;;;;10.75;100.00;100842.22;6203998;23;20008;-83
2021/10/06 06:36:59;;;;;;;21.02;3.15;;;;;;;10.78;100.00;100847.53;6210889;23;20017;-83
2021/10/06 06:40:08;;;;;;;13.18;1.92;;;;;;;10.80;100.00;100855.47;6214000;23;20471;-82
2021/10/06 06:42:59;;;;;;;17.73;2.50;;;;;;;10.84;100.00;100857.28;6170890;23;20012;-83
2021/10/06 06:45:27;;;;;;;17.17;2.20;;;;;;;10.88;100.00;100855.56;6212462;23;20024;-79
2021/10/06 06:47:57;;;;;;;9.25;1.73;;;;;;;10.96;100.00;100861.84;6212751;23;20010;-79
2021/10/06 06:50:23;;;;;;;11.60;1.90;;;;;;;11.01;100.00;100865.41;6212652;23;20339;-84
2021/10/06 06:52:57;;;;;;;12.77;3.03;;;;;;;11.04;100.00;100862.84;6214530;23;20088;-81
2021/10/06 06:55:22;;;;;;;;;;;;;;;11.10;100.00;100865.56;6214988;23;20004;-81
2021/10/06 06:57:48;;;;;;;15.15;2.22;;;;;;;11.12;100.00;100878.75;6213536;23;19903;-81
2021/10/06 07:01:16;;;;;;;16.27;2.08;;;;;;;11.11;100.00;100875.25;6213489;23;20001;-80
2021/10/06 07:07:48;;;;;;;33.28;3.08;;;;;;;11.17;100.00;100892.00;6166119;23;20012;-82
2021/10/06 07:10:17;;;;;;;25.65;3.42;;;;;;;11.18;100.00;100893.75;6213409;23;20062;-84
2021/10/06 07:12:42;;;;;;;15.68;2.50;;;;;;;11.19;100.00;100891.16;6213916;23;20009;-87
2021/10/06 07:15:09;;;;;;;14.40;3.17;;;;;;;11.19;100.00;100892.91;6213021;23;20084;-79
2021/10/06 07:17:47;;;;;;;20.90;2.88;;;;;;;11.16;100.00;100891.09;6185612;23;20016;-79
2021/10/06 07:20:40;;;;;;;15.98;2.20;;;;;;;11.10;100.00;100936.66;6205690;23;20012;-84
2021/10/06 07:23:05;;;;;;;17.00;2.20;;;;;;;10.91;100.00;100937.25;6213870;23;20015;-83
2021/10/06 07:25:33;;;;;;;6.88;1.20;;;;;;;10.69;100.00;100941.22;6213461;23;20008;-84
2021/10/06 07:28:11;;;;;;;16.73;1.92;;;;;;;10.44;100.00;100940.78;6213302;23;20004;-79
2021/10/06 07:30:39;;;;;;;8.65;2.20;;;;;;;10.25;100.00;100950.91;6217043;23;20000;-80
2021/10/06 07:33:08;;;;;;;8.35;1.15;;;;;;;10.11;100.00;100937.50;6212717;23;20009;-82
2021/10/06 07:35:40;;;;;;;7.13;0.70;;;;;;;10.01;100.00;100938.19;6203555;23;20019;-83
2021/10/06 07:38:30;;;;;;;10.93;1.45;;;;;;;9.92;100.00;100940.63;6210502;23;20059;-85
2021/10/06 07:40:56;;;;;;;4.55;1.15;;;;;;;9.87;100.00;100944.91;6203378;23;20074;-85
2021/10/06 07:43:24;;;;;;;5.30;1.00;;;;;;;9.81;100.00;100947.38;6210518;23;20004;-80
2021/10/06 07:46:01;;;;;;;9.20;1.35;;;;;;;9.84;100.00;100940.47;6210444;23;20019;-83
2021/10/06 07:48:28;;;;;;;14.38;2.08;;;;;;;10.07;100.00;100946.19;6210910;23;20016;-84
2021/10/06 07:51:18;;;;;;;;;;;;;;;;;;;;;
2021/10/06 07:54:10;;;;;;;25.58;3.63;;;;;;;10.56;100.00;100956.81;6209587;23;20079;-82
2021/10/06 07:56:54;;;;;;;33.60;4.68;;;;;;;10.76;100.00;100972.97;6210749;23;20008;-83
2021/10/06 08:00:02;;;;;;;24.30;3.25;;;;;;;10.77;100.00;100987.00;6210954;23;20016;-85
2021/10/06 08:02:42;;;;;;;10.13;2.95;;;;;;;10.66;100.00;100960.47;6210083;23;20035;-85
2021/10/06 08:05:41;;;;;;;28.35;3.55;;;;;;;10.53;100.00;100997.97;6209540;23;20084;-84
2021/10/06 08:08:21;;;;;;;9.75;1.40;;;;;;;10.40;100.00;100981.94;6209490;23;20013;-82
2021/10/06 08:11:08;;;;;;;9.80;1.50;;;;;;;10.38;100.00;100993.31;6209743;23;20503;-82
2021/10/06 08:14:01;;;;;;;;;;;;;;;;;;;;;
2021/10/06 08:20:37;;;;;;;33.97;3.75;;;;;;;10.68;100.00;101013.16;6181041;23;20017;-83
2021/10/06 08:23:15;;;;;;;32.22;4.40;;;;;;;10.82;100.00;101010.78;6182723;23;20009;-84
2021/10/06 08:25:52;;;;;;;34.10;4.38;;;;;;;10.98;100.00;101018.09;6182962;23;20001;-86
2021/10/06 08:28:26;;;;;;;22.58;4.05;;;;;;;11.03;100.00;100998.00;6182855;23;20001;-83
2021/10/06 08:31:03;;;;;;;40.03;5.35;;;;;;;11.09;100.00;101027.06;6180417;23;20450;-82
2021/10/06 08:33:31;;;;;;;26.30;5.25;;;;;;;11.20;100.00;101035.16;6183633;23;20390;-85
2021/10/06 08:36:17;;;;;;;32.70;5.20;;;;;;;11.27;100.00;101033.50;6181104;23;20382;-86
2021/10/06 08:38:55;;;;;;;41.88;6.55;;;;;;;11.30;100.00;101059.91;6182347;23;20448;-82
2021/10/06 08:42:20;;;;;;;;;;;;;;;;;;;;;
2021/10/06 08:45:52;;;;;;;;;;;;;;;;;;;;;
2021/10/06 08:52:06;;;;;;;40.40;6.13;;;;;;;11.46;100.00;101061.94;6178986;23;20009;-82
2021/10/06 08:54:33;;;;;;;29.05;6.18;;;;;;;11.63;100.00;101061.31;6184575;23;20009;-81
2021/10/06 08:57:28;;;;;;;32.78;4.97;;;;;;;11.75;100.00;101060.63;6185373;23;20009;-81
2021/10/06 08:59:55;;;;;;;34.83;5.55;;;;;;;11.80;100.00;101069.47;6181762;23;20083;-79
2021/10/06 09:02:21;;;;;;;41.00;5.55;;;;;;;11.83;100.00;101069.53;6184555;23;20416;-81
2021/10/06 09:05:26;;;;;;;25.05;4.25;;;;;;;11.84;100.00;101073.06;6181700;23;20009;-83
2021/10/06 09:08:24;;;;;;;30.88;4.30;;;;;;;11.84;100.00;101075.69;6174267;23;20017;-83
2021/10/06 09:10:51;;;;;;;29.75;5.60;;;;;;;11.88;100.00;101088.97;6182207;23;20020;-84
2021/10/06 09:13:17;;;;;;;25.33;3.47;;;;;;;11.89;100.00;101105.66;6183237;23;20424;-83
2021/10/06 09:15:51;;;;;;;15.77;2.25;;;;;;;11.89;100.00;101103.03;6181126;23;20012;-83
2021/10/06 09:18:45;;;;;;;21.63;2.45;;;;;;;12.09;100.00;101098.97;6200680;23;20023;-80
2021/10/06 09:21:11;;;;;;;;;;;;;;;12.46;100.00;101111.78;6213443;23;20022;-81
2021/10/06 09:23:41;;;;;;;21.50;2.15;;;;;;;12.63;100.00;101117.28;6214105;23;19971;-80
2021/10/06 09:26:28;;;;;;;18.15;2.67;;;;;;;12.75;100.00;101128.00;6214488;23;20008;-80
2021/10/06 09:29:22;;;;;;;17.85;1.70;;;;;;;12.90;100.00;101122.00;6212374;23;20024;-81
2021/10/06 09:31:47;;;;;;;17.13;1.70;;;;;;;13.10;100.00;101135.44;6213646;23;20059;-81
2021/10/06 09:34:16;;;;;;;18.00;2.65;;;;;;;13.36;100.00;101137.50;6211686;23;20004;-82
2021/10/06 09:36:42;;;;;;;21.40;2.17;;;;;;;13.48;100.00;101139.34;6215611;23;20008;-81
2021/10/06 09:39:12;;;;;;;18.90;1.90;;;;;;;13.54;100.00;101146.44;6214464;23;20004;-84
2021/10/06 09:42:01;;;;;;;13.32;1.77;;;;;;;13.49;100.00;101144.66;6214707;23;20281;-80
2021/10/06 09:44:31;;;;;;;13.65;1.88;;;;;;;13.60;100.00;101149.16;6215438;23;20012;-80
2021/10/06 09:47:03;;;;;;;10.18;1.88;;;;;;;13.76;100.00;101152.84;6215616;23;20027;-84
2021/10/06 09:49:38;;;;;;;10.85;1.65;;;;;;;14.31;100.00;101165.56;6190473;23;20013;-82
2021/10/06 09:52:20;;;;;;;15.68;1.95;;;;;;;15.08;97.92;101157.13;6214039;23;20062;-82
2021/10/06 09:55:09;;;;;;;20.85;2.53;;;;;;;15.08;95.81;101158.00;6215422;23;20082;-81
2021/10/06 09:57:54;;;;;;;18.75;2.40;;;;;;;15.02;96.20;101158.00;6213714;23;20001;-81
2021/10/06 10:00:21;;;;;;;17.98;2.13;;;;;;;14.78;97.62;101172.03;6213522;23;20008;-82
2021/10/06 10:03:20;;;;;;;18.70;2.33;;;;;;;14.65;97.34;101168.47;6212323;23;20005;-84
2021/10/06 10:06:14;;;;;;;14.93;1.90;;;;;;;14.45;95.63;101177.13;6214556;23;20009;-83
2021/10/06 10:09:27;;;;;;;17.35;2.20;;;;;;;14.32;95.46;101185.88;6203658;23;20024;-84
2021/10/06 10:12:35;;;;;;;8.98;1.35;;;;;;;14.15;94.07;101194.59;6210368;23;20391;-85
2021/10/06 10:15:41;;;;;;;15.00;2.03;;;;;;;14.46;94.38;101197.44;6209824;23;20649;-84
2021/10/06 10:18:23;;;;;;;14.07;1.50;;;;;;;15.59;89.08;101200.56;6063759;23;20026;-83
2021/10/06 10:21:56;;;;;;;;;;;;;;;;;;;;;
2021/10/06 10:25:17;;;;;;;7.85;1.63;;;;;;;15.92;84.60;101221.84;6151173;23;20005;-82
2021/10/06 10:28:15;;;;;;;10.85;1.45;;;;;;;15.05;88.35;101240.16;6152215;23;20013;-83
2021/10/06 10:30:57;;;;;;;9.85;1.48;;;;;;;14.54;90.93;101247.81;6153228;23;20013;-82
2021/10/06 10:36:59;;;;;;;9.35;1.50;;;;;;;14.00;96.09;101260.63;6153050;23;20014;-84
2021/10/06 10:43:22;;;;;;;7.55;1.63;;;;;;;14.51;95.77;101268.97;6152260;23;20328;-84
2021/10/06 10:46:53;;;;;;;;;;;;;;;;;;;;;
2021/10/06 10:54:19;;;;;;;;;;;;;;;;;;;;;
2021/10/06 11:19:24;;;;;;;;;;;;;;;;;;;;;
2021/10/06 11:25:44;;;;;;;11.40;1.63;;;;;;;13.59;95.03;101366.84;6130654;23;20013;-83
2021/10/06 11:28:32;;;;;;;8.00;1.13;;;;;;;13.24;97.47;101372.50;6191186;23;20451;-82
2021/10/06 11:30:59;;;;;;;6.50;1.20;;;;;;;13.05;98.45;101369.63;6213370;23;20081;-82
2021/10/06 11:33:26;;;;;;;5.10;1.58;;;;;;;12.93;100.00;101388.81;6212383;23;20028;-82
2021/10/06 11:35:52;;;;;;;5.70;1.75;;;;;;;12.81;100.00;101386.84;6213247;23;20020;-80
2021/10/06 11:38:17;;;;;;;9.40;1.85;;;;;;;12.81;100.00;101402.72;6213913;23;20004;-81
2021/10/06 11:40:46;;;;;;;13.85;2.15;;;;;;;12.74;100.00;101421.97;6213919;23;20047;-80
2021/10/06 11:43:12;;;;;;;8.82;1.80;;;;;;;12.62;100.00;101413.84;6213161;23;20009;-83
2021/10/06 11:45:52;;;;;;;12.73;1.88;;;;;;;12.56;100.00;101414.63;6214140;23;20058;-83
2021/10/06 11:48:22;;;;;;;12.73;2.10;;;;;;;12.60;100.00;101412.91;6213139;23;20466;-81
2021/10/06 11:50:52;;;;;;;12.20;1.55;;;;;;;12.81;100.00;101413.28;6213018;23;20390;-84
2021/10/06 11:53:20;;;;;;;13.30;2.00;;;;;;;13.02;100.00;101411.81;6214244;23;19993;-79
2021/10/06 11:56:06;;;;;;;20.40;1.90;;;;;;;13.23;100.00;101426.25;6213496;23;20327;-82
2021/10/06 11:58:51;;;;;;;17.42;2.90;;;;;;;13.37;100.00;101419.44;6214323;23;20019;-80
2021/10/06 12:01:17;;;;;;;12.57;1.98;;;;;;;13.45;100.00;101422.19;6211069;23;20020;-81
2021/10/06 12:03:42;;;;;;;14.40;2.08;;;;;;;13.82;100.00;101431.53;6213995;23;20005;-79
2021/10/06 12:06:10;;;;;;;15.70;2.40;;;;;;;15.16;98.77;101425.78;6206050;23;20384;-80
2021/10/06 12:08:37;;;;;;;12.73;2.25;;;;;;;15.52;95.11;101433.06;6214531;23;20039;-80
2021/10/06 12:11:23;;;;;;;12.00;1.98;;;;;;;15.18;92.71;101430.22;6214124;23;20020;-80
2021/10/06 12:13:50;;;;;;;17.15;2.17;;;;;;;15.01;95.09;101445.97;6212159;23;20012;-81
2021/10/06 12:16:41;;;;;;;10.93;1.73;;;;;;;14.65;95.51;101447.44;6214325;23;20005;-82
2021/10/06 12:19:07;;;;;;;18.05;1.23;;;;;;;14.46;96.50;101467.53;6214819;23;20017;-80
2021/10/06 12:21:53;;;;;;;11.60;1.83;;;;;;;14.40;96.11;101470.09;6214220;23;20012;-80
2021/10/06 12:24:22;;;;;;;10.00;1.55;;;;;;;14.27;97.45;101474.38;6215643;23;20039;-81
2021/10/06 12:26:48;;;;;;;9.25;1.52;;;;;;;14.18;99.17;101486.63;6215396;23;20004;-79
2021/10/06 12:29:33;;;;;;;10.93;1.65;;;;;;;13.96;100.00;101489.00;6214039;23;20005;-80
2021/10/06 12:32:17;;;;;;;12.15;1.83;;;;;;;13.77;100.00;101494.03;6214309;23;20374;-78
2021/10/06 12:34:44;;;;;;;15.75;2.42;;;;;;;13.66;100.00;101512.41;6214404;23;20071;-80
2021/10/06 12:37:13;;;;;;;19.92;2.45;;;;;;;13.57;100.00;101498.16;6214523;23;20117;-79
2021/10/06 12:39:39;;;;;;;13.18;2.33;;;;;;;13.49;100.00;101482.19;6213071;23;20009;-79
2021/10/06 12:42:08;;;;;;;16.58;2.10;;;;;;;13.36;100.00;101489.06;6212742;23;20070;-82
2021/10/06 12:44:43;;;;;;;15.10;2.40;;;;;;;13.30;100.00;101491.56;6214880;23;20079;-81
2021/10/06 12:47:17;;;;;;;13.35;2.22;;;;;;;13.24;100.00;101494.09;6212811;23;20031;-82
2021/10/06 12:50:08;;;;;;;18.40;2.60;;;;;;;13.25;100.00;101509.09;6214150;23;20015;-82
2021/10/06 12:52:34;;;;;;;14.55;2.42;;;;;;;13.25;100.00;101530.22;6213577;23;20005;-80
2021/10/06 12:55:15;;;;;;;32.05;4.10;;;;;;;13.25;100.00;101536.44;6214007;23;20008;-79
2021/10/06 12:58:25;;;;;;;15.98;2.03;;;;;;;13.19;100.00;101546.00;6214218;23;20096;-82
2021/10/06 13:01:02;;;;;;;11.20;2.28;;;;;;;13.12;100.00;101539.72;6213427;23;20059;-82
2021/10/06 13:04:06;;;;;;;13.75;2.17;;;;;;;13.21;100.00;101538.97;6189751;23;20009;-79
2021/10/06 13:06:32;;;;;;;;;;;;;;;13.31;100.00;101551.50;6215766;23;20011;-78
2021/10/06 13:08:59;;;;;;;23.02;2.40;;;;;;;13.36;100.00;101560.44;6214447;23;19904;-81
2021/10/06 13:11:25;;;;;;;13.07;2.03;;;;;;;13.40;100.00;101567.53;6214942;23;20009;-81
2021/10/06 13:14:30;;;;;;;13.45;2.13;;;;;;;13.42;100.00;101568.44;6214647;23;20005;-79
2021/10/06 13:16:58;;;;;;;10.48;1.65;;;;;;;13.45;100.00;101575.53;6215185;23;20075;-80
2021/10/06 13:19:38;;;;;;;15.23;1.38;;;;;;;13.37;100.00;101582.44;6213807;23;20017;-78
2021/10/06 13:22:04;;;;;;;11.65;2.00;;;;;;;13.31;100.00;101588.50;6187544;23;20008;-80
2021/10/06 13:24:29;;;;;;;8.88;1.48;;;;;;;13.28;100.00;101593.72;6214494;23;20008;-79
2021/10/06 13:26:55;;;;;;;9.13;1.92;;;;;;;13.27;100.00;101603.41;6214242;23;20347;-77
2021/10/06 13:29:42;;;;;;;9.23;2.20;;;;;;;13.28;100.00;101599.91;6213622;23;20412;-81
2021/10/06 13:32:08;;;;;;;16.98;1.98;;;;;;;13.17;100.00;101590.88;6214204;23;20019;-82
2021/10/06 13:34:34;;;;;;;14.48;2.35;;;;;;;13.12;100.00;101613.72;6214087;23;20009;-81
2021/10/06 13:36:59;;;;;;;20.23;2.55;;;;;;;13.09;100.00;101618.91;6214298;23;20005;-81
2021/10/06 13:39:25;;;;;;;19.15;2.88;;;;;;;13.07;100.00;101618.88;6215242;23;20019;-80
2021/10/06 13:42:13;;;;;;;11.60;2.45;;;;;;;12.99;100.00;101623.13;6215121;23;20454;-80
2021/10/06 13:44:45;;;;;;;14.13;2.10;;;;;;;12.94;100.00;101630.06;6214120;23;20058;-83
2021/10/06 13:47:11;;;;;;;16.98;2.00;;;;;;;12.91;100.00;101635.31;6214548;23;20023;-77
2021/10/06 13:49:56;;;;;;;17.65;2.58;;;;;;;12.94;100.00;101644.19;6212402;23;20323;-79
2021/10/06 13:52:44;;;;;;;18.48;2.58;;;;;;;13.06;100.00;101651.47;6213277;23;20015;-77
2021/10/06 13:55:30;;;;;;;13.85;2.33;;;;;;;13.18;100.00;101656.09;6212599;23;20019;-78
2021/10/06 13:57:56;;;;;;;19.05;2.38;;;;;;;13.24;100.00;101661.50;6212575;23;20004;-79
2021/10/06 14:00:38;;;;;;;15.95;2.63;;;;;;;13.30;100.00;101655.44;6215151;23;20013;-78
2021/10/06 14:03:04;;;;;;;18.17;2.60;;;;;;;13.31;100.00;101662.50;6210541;23;20012;-80
2021/10/06 14:05:30;;;;;;;15.82;2.85;;;;;;;13.31;100.00;101667.78;6213413;23;20008;-81
2021/10/06 14:07:56;;;;;;;19.15;2.45;;;;;;;13.25;100.00;101673.88;6208399;23;20028;-79
2021/10/06 14:10:24;;;;;;;22.17;2.88;;;;;;;13.18;100.00;101674.59;6214340;23;20327;-78
2021/10/06 14:12:50;;;;;;;13.40;2.25;;;;;;;13.12;100.00;101667.44;6212996;23;20005;-79
2021/10/06 14:15:36;;;;;;;15.68;2.00;;;;;;;13.12;100.00;101677.13;6213019;23;20012;-80
2021/10/06 14:18:01;;;;;;;13.48;2.40;;;;;;;13.24;100.00;101676.44;6212343;23;20016;-80
2021/10/06 14:20:32;;;;;;;10.07;1.88;;;;;;;13.44;100.00;101683.06;6214615;23;20366;-79
2021/10/06 14:22:59;;;;;;;20.38;2.92;;;;;;;13.62;100.00;101682.47;6213913;23;20038;-79
2021/10/06 14:25:25;;;;;;;18.40;2.45;;;;;;;13.73;100.00;101687.97;6214912;23;20023;-80
2021/10/06 14:27:50;;;;;;;17.75;2.78;;;;;;;13.86;100.00;101693.44;6187138;23;20009;-79
2021/10/06 14:30:36;;;;;;;19.02;2.30;;;;;;;13.85;100.00;101696.97;6215371;23;20017;-80
2021/10/06 14:33:01;;;;;;;19.08;3.03;;;;;;;13.81;100.00;101704.84;6213808;23;20012;-82
2021/10/06 14:35:27;;;;;;;14.27;2.65;;;;;;;13.85;100.00;101712.81;6214986;23;20309;-83
2021/10/06 14:37:54;;;;;;;21.70;2.78;;;;;;;13.89;100.00;101719.94;6214554;23;20007;-80
2021/10/06 14:40:20;;;;;;;17.00;2.38;;;;;;;14.02;100.00;101729.88;6213546;23;20001;-80
2021/10/06 14:42:51;;;;;;;12.32;1.92;;;;;;;14.01;100.00;101722.81;6213338;23;20004;-81
2021/10/06 14:45:23;;;;;;;14.02;2.40;;;;;;;13.97;100.00;101727.16;6187295;23;20005;-80
2021/10/06 14:48:11;;;;;;;17.05;2.67;;;;;;;13.90;100.00;101729.69;6214922;23;20004;-82
2021/10/06 14:50:42;;;;;;;14.93;2.00;;;;;;;13.84;100.00;101733.13;6209801;23;20443;-81
2021/10/06 14:53:08;;;;;;;17.52;2.10;;;;;;;13.79;100.00;101733.03;6213592;23;20458;-82
2021/10/06 14:55:53;;;;;;;13.48;2.15;;;;;;;13.81;100.00;101743.66;6213256;23;20096;-81
2021/10/06 14:58:40;;;;;;;17.00;2.65;;;;;;;13.87;100.00;101740.22;6212704;23;20020;-82
2021/10/06 15:01:18;;;;;;;14.25;2.38;;;;;;;13.94;100.00;101745.63;6214699;23;20076;-84
2021/10/06 15:03:51;;;;;;;13.95;1.75;;;;;;;14.01;100.00;101746.63;6212869;23;20431;-81
2021/10/06 15:06:43;;;;;;;13.63;1.70;;;;;;;14.08;100.00;101752.91;6214336;23;20027;-82
2021/10/06 15:09:21;;;;;;;9.05;1.40;;;;;;;14.10;99.10;101754.72;6214265;23;20089;-83
2021/10/06 15:12:15;;;;;;;11.05;1.73;;;;;;;14.13;99.56;101759.19;6213887;23;20008;-83
2021/10/06 15:23:17;;;;;;;9.50;1.85;;;;;;;14.19;96.38;101779.56;5053644;28;20411;-70
2021/10/06 15:25:43;;;;;;;8.85;1.60;;;;;;;14.12;94.68;101783.84;5049995;28;20029;-69
2021/10/06 15:28:09;;;;;;;10.77;1.77;;;;;;;14.13;95.66;101790.94;5055776;28;20044;-70
2021/10/06 15:30:36;;;;;;;10.57;1.40;;;;;;;14.24;95.62;101797.28;5055660;28;20476;-70
2021/10/06 15:33:02;;;;;;;10.77;1.75;;;;;;;14.52;93.90;101792.47;5054596;28;20032;-69
2021/10/06 15:35:27;;;;;;;9.50;1.70;;;;;;;14.73;93.14;101791.94;5055289;28;20037;-71
2021/10/06 15:37:53;;;;;;;10.13;1.58;;;;;;;14.96;90.78;101799.31;5055740;28;20048;-69
2021/10/06 15:40:19;;;;;;;7.97;1.73;;;;;;;15.08;90.82;101801.22;5047090;28;20044;-70
2021/10/06 15:42:49;;;;;;;9.45;1.50;;;;;;;15.18;89.46;101801.38;5033990;28;20027;-72
2021/10/06 15:45:15;;;;;;;8.52;1.20;;;;;;;15.11;87.44;101803.91;5043562;28;20064;-72
2021/10/06 15:47:41;;;;;;;9.32;1.98;;;;;;;15.06;88.88;101809.16;5036091;28;20025;-72
2021/10/06 15:50:09;;;;;;;9.15;1.67;;;;;;;14.87;87.26;101802.72;5037837;28;20036;-71
2021/10/06 15:52:35;;;;;;;8.25;1.38;;;;;;;14.82;89.37;101820.31;5034462;28;20429;-71
2021/10/06 15:55:00;;;;;;;12.55;2.17;;;;;;;14.77;90.26;101824.66;5040413;28;20083;-77